sensor_id;sensor_type;location;lat;lon;timestamp;pressure;altitude;pressure_sealevel;temperature;humidity
14067;BME280;7108;42.684;23.350;2023-04-23T00:00:03;95288.63;;;11.32;100.00
14067;BME280;7108;42.684;23.350;2023-04-23T00:02:32;95288.56;;;11.29;100.00
14067;BME280;7108;42.684;23.350;2023-04-23T00:05:02;95304.00;;;11.28;100.00
14067;BME280;7108;42.684;23.350;2023-04-23T00:07:31;95296.50;;;11.18;100.00
14067;BME280;7108;42.684;23.350;2023-04-23T00:09:57;95300.03;;;11.22;100.00
14067;BME280;7108;42.684;23.350;2023-04-23T00:12:23;95302.41;;;11.27;100.00
14067;BME280;7108;42.684;23.350;2023-04-23T00:14:49;95295.69;;;11.18;100.00
14067;BME280;7108;42.684;23.350;2023-04-23T00:17:14;95299.84;;;11.12;100.00
14067;BME280;7108;42.684;23.350;2023-04-23T00:19:40;95301.47;;;11.16;100.00
14067;BME280;7108;42.684;23.350;2023-04-23T00:22:05;95294.09;;;11.13;100.00
14067;BME280;7108;42.684;23.350;2023-04-23T00:24:31;95302.13;;;11.10;100.00
14067;BME280;7108;42.684;23.350;2023-04-23T00:26:58;95296.47;;;10.96;100.00
14067;BME280;7108;42.684;23.350;2023-04-23T00:29:23;95305.81;;;11.02;100.00
14067;BME280;7108;42.684;23.350;2023-04-23T00:31:49;95297.03;;;11.05;100.00
14067;BME280;7108;42.684;23.350;2023-04-23T00:34:14;95298.00;;;10.97;100.00
14067;BME280;7108;42.684;23.350;2023-04-23T00:36:39;95297.31;;;11.00;100.00
14067;BME280;7108;42.684;23.350;2023-04-23T00:39:05;95287.13;;;10.90;100.00
14067;BME280;7108;42.684;23.350;2023-04-23T00:41:30;95291.41;;;10.95;100.00
14067;BME280;7108;42.684;23.350;2023-04-23T00:43:56;95291.09;;;10.96;100.00
14067;BME280;7108;42.684;23.350;2023-04-23T00:46:23;95288.25;;;10.89;100.00
14067;BME280;7108;42.684;23.350;2023-04-23T00:48:49;95293.22;;;10.87;100.00
14067;BME280;7108;42.684;23.350;2023-04-23T00:51:15;95289.31;;;10.85;100.00
14067;BME280;7108;42.684;23.350;2023-04-23T00:53:41;95293.13;;;10.84;100.00
14067;BME280;7108;42.684;23.350;2023-04-23T00:56:07;95301.22;;;10.84;100.00
14067;BME280;7108;42.684;23.350;2023-04-23T00:58:33;95299.25;;;10.81;100.00
14067;BME280;7108;42.684;23.350;2023-04-23T01:00:58;95302.53;;;10.71;100.00
14067;BME280;7108;42.684;23.350;2023-04-23T01:03:26;95303.00;;;10.76;100.00
14067;BME280;7108;42.684;23.350;2023-04-23T01:05:51;95306.25;;;10.63;100.00
14067;BME280;7108;42.684;23.350;2023-04-23T01:08:17;95300.50;;;10.64;100.00
14067;BME280;7108;42.684;23.350;2023-04-23T01:10:44;95301.63;;;10.63;100.00
14067;BME280;7108;42.684;23.350;2023-04-23T01:13:12;95307.06;;;10.67;100.00
14067;BME280;7108;42.684;23.350;2023-04-23T01:15:38;95299.00;;;10.67;100.00
14067;BME280;7108;42.684;23.350;2023-04-23T01:18:04;95287.59;;;10.54;100.00
14067;BME280;7108;42.684;23.350;2023-04-23T01:20:35;95290.75;;;10.60;100.00
14067;BME280;7108;42.684;23.350;2023-04-23T01:23:02;95293.38;;;10.56;100.00
14067;BME280;7108;42.684;23.350;2023-04-23T01:25:28;95291.34;;;10.50;100.00
14067;BME280;7108;42.684;23.350;2023-04-23T01:27:55;95294.03;;;10.50;100.00
14067;BME280;7108;42.684;23.350;2023-04-23T01:30:24;95289.28;;;10.44;100.00
14067;BME280;7108;42.684;23.350;2023-04-23T01:32:49;95301.69;;;10.48;100.00
14067;BME280;7108;42.684;23.350;2023-04-23T01:35:15;95289.56;;;10.39;100.00
14067;BME280;7108;42.684;23.350;2023-04-23T01:37:42;95307.31;;;10.40;100.00
14067;BME280;7108;42.684;23.350;2023-04-23T01:40:09;95307.34;;;10.43;100.00
14067;BME280;7108;42.684;23.350;2023-04-23T01:42:35;95300.00;;;10.40;100.00
14067;BME280;7108;42.684;23.350;2023-04-23T01:45:01;95301.63;;;10.45;100.00
14067;BME280;7108;42.684;23.350;2023-04-23T01:47:27;95296.44;;;10.36;100.00
14067;BME280;7108;42.684;23.350;2023-04-23T01:49:53;95305.66;;;10.35;100.00
14067;BME280;7108;42.684;23.350;2023-04-23T01:52:19;95311.81;;;10.36;100.00
14067;BME280;7108;42.684;23.350;2023-04-23T01:54:44;95312.94;;;10.35;100.00
14067;BME280;7108;42.684;23.350;2023-04-23T01:57:10;95303.88;;;10.24;100.00
14067;BME280;7108;42.684;23.350;2023-04-23T01:59:36;95309.75;;;10.29;100.00
14067;BME280;7108;42.684;23.350;2023-04-23T02:02:01;95308.56;;;10.27;100.00
14067;BME280;7108;42.684;23.350;2023-04-23T02:04:28;95313.09;;;10.23;100.00
14067;BME280;7108;42.684;23.350;2023-04-23T02:06:54;95304.16;;;10.19;100.00
14067;BME280;7108;42.684;23.350;2023-04-23T02:09:20;95311.09;;;10.20;100.00
14067;BME280;7108;42.684;23.350;2023-04-23T02:11:45;95311.03;;;10.16;100.00
14067;BME280;7108;42.684;23.350;2023-04-23T02:14:11;95309.75;;;10.10;100.00
14067;BME280;7108;42.684;23.350;2023-04-23T02:16:36;95320.00;;;10.05;100.00
14067;BME280;7108;42.684;23.350;2023-04-23T02:19:02;95315.81;;;10.07;100.00
14067;BME280;7108;42.684;23.350;2023-04-23T02:21:27;95315.91;;;9.95;100.00
14067;BME280;7108;42.684;23.350;2023-04-23T02:23:54;95315.47;;;9.93;100.00
14067;BME280;7108;42.684;23.350;2023-04-23T02:26:20;95316.00;;;9.99;100.00
14067;BME280;7108;42.684;23.350;2023-04-23T02:28:47;95317.06;;;9.94;100.00
14067;BME280;7108;42.684;23.350;2023-04-23T02:31:12;95324.53;;;10.01;100.00
14067;BME280;7108;42.684;23.350;2023-04-23T02:33:39;95313.56;;;9.94;100.00
14067;BME280;7108;42.684;23.350;2023-04-23T02:36:05;95316.81;;;9.99;100.00
14067;BME280;7108;42.684;23.350;2023-04-23T02:38:31;95324.53;;;10.01;100.00
14067;BME280;7108;42.684;23.350;2023-04-23T02:40:56;95320.72;;;10.02;100.00
14067;BME280;7108;42.684;23.350;2023-04-23T02:43:21;95318.28;;;9.97;100.00
14067;BME280;7108;42.684;23.350;2023-04-23T02:45:47;95317.56;;;10.00;100.00
14067;BME280;7108;42.684;23.350;2023-04-23T02:48:12;95315.84;;;9.92;100.00
14067;BME280;7108;42.684;23.350;2023-04-23T02:50:38;95318.00;;;9.86;100.00
14067;BME280;7108;42.684;23.350;2023-04-23T02:53:04;95318.47;;;9.73;100.00
14067;BME280;7108;42.684;23.350;2023-04-23T02:55:32;95321.16;;;9.73;100.00
14067;BME280;7108;42.684;23.350;2023-04-23T02:57:58;95316.56;;;9.74;100.00
14067;BME280;7108;42.684;23.350;2023-04-23T03:00:25;95323.56;;;9.78;100.00
14067;BME280;7108;42.684;23.350;2023-04-23T03:02:51;95328.63;;;9.79;100.00
14067;BME280;7108;42.684;23.350;2023-04-23T03:05:16;95321.59;;;9.75;100.00
14067;BME280;7108;42.684;23.350;2023-04-23T03:07:41;95317.97;;;9.68;100.00
14067;BME280;7108;42.684;23.350;2023-04-23T03:10:07;95325.84;;;9.76;100.00
14067;BME280;7108;42.684;23.350;2023-04-23T03:12:33;95331.81;;;9.70;100.00
14067;BME280;7108;42.684;23.350;2023-04-23T03:14:59;95335.66;;;9.69;100.00
14067;BME280;7108;42.684;23.350;2023-04-23T03:17:24;95330.38;;;9.72;100.00
14067;BME280;7108;42.684;23.350;2023-04-23T03:19:49;95334.78;;;9.65;100.00
14067;BME280;7108;42.684;23.350;2023-04-23T03:22:15;95333.56;;;9.62;100.00
14067;BME280;7108;42.684;23.350;2023-04-23T03:24:40;95341.81;;;9.69;100.00
14067;BME280;7108;42.684;23.350;2023-04-23T03:27:06;95345.22;;;9.66;100.00
14067;BME280;7108;42.684;23.350;2023-04-23T03:29:31;95323.44;;;9.56;100.00
14067;BME280;7108;42.684;23.350;2023-04-23T03:31:57;95338.94;;;9.62;100.00
14067;BME280;7108;42.684;23.350;2023-04-23T03:34:22;95326.28;;;9.63;100.00
14067;BME280;7108;42.684;23.350;2023-04-23T03:36:47;95346.44;;;9.69;100.00
14067;BME280;7108;42.684;23.350;2023-04-23T03:39:14;95343.19;;;9.63;100.00
14067;BME280;7108;42.684;23.350;2023-04-23T03:41:39;95338.63;;;9.64;100.00
14067;BME280;7108;42.684;23.350;2023-04-23T03:44:05;95346.44;;;9.69;100.00
14067;BME280;7108;42.684;23.350;2023-04-23T03:46:30;95345.97;;;9.67;100.00
14067;BME280;7108;42.684;23.350;2023-04-23T03:48:55;95352.13;;;9.67;100.00
14067;BME280;7108;42.684;23.350;2023-04-23T03:51:21;95354.41;;;9.65;100.00
14067;BME280;7108;42.684;23.350;2023-04-23T03:53:47;95338.88;;;9.59;100.00
14067;BME280;7108;42.684;23.350;2023-04-23T03:56:12;95342.84;;;9.65;100.00
14067;BME280;7108;42.684;23.350;2023-04-23T03:58:38;95352.56;;;9.69;100.00
14067;BME280;7108;42.684;23.350;2023-04-23T04:01:03;95364.47;;;9.68;100.00
14067;BME280;7108;42.684;23.350;2023-04-23T04:03:29;95354.81;;;9.67;100.00
14067;BME280;7108;42.684;23.350;2023-04-23T04:05:54;95365.50;;;9.79;100.00
14067;BME280;7108;42.684;23.350;2023-04-23T04:08:20;95352.75;;;9.76;100.00
14067;BME280;7108;42.684;23.350;2023-04-23T04:10:46;95361.19;;;9.75;100.00
14067;BME280;7108;42.684;23.350;2023-04-23T04:13:12;95362.81;;;9.79;100.00
14067;BME280;7108;42.684;23.350;2023-04-23T04:15:37;95359.84;;;9.84;100.00
14067;BME280;7108;42.684;23.350;2023-04-23T04:18:03;95367.25;;;9.87;100.00
14067;BME280;7108;42.684;23.350;2023-04-23T04:20:28;95368.72;;;9.84;100.00
14067;BME280;7108;42.684;23.350;2023-04-23T04:22:54;95358.38;;;9.86;100.00
14067;BME280;7108;42.684;23.350;2023-04-23T04:25:19;95368.31;;;9.98;100.00
14067;BME280;7108;42.684;23.350;2023-04-23T04:27:46;95369.50;;;10.00;100.00
14067;BME280;7108;42.684;23.350;2023-04-23T04:30:12;95367.75;;;9.92;100.00
14067;BME280;7108;42.684;23.350;2023-04-23T04:32:38;95368.44;;;9.89;100.00
14067;BME280;7108;42.684;23.350;2023-04-23T04:35:05;95371.75;;;9.98;100.00
14067;BME280;7108;42.684;23.350;2023-04-23T04:37:31;95378.69;;;9.84;100.00
14067;BME280;7108;42.684;23.350;2023-04-23T04:39:57;95373.13;;;9.92;100.00
14067;BME280;7108;42.684;23.350;2023-04-23T04:42:23;95373.03;;;9.89;100.00
14067;BME280;7108;42.684;23.350;2023-04-23T04:44:49;95373.84;;;9.89;100.00
14067;BME280;7108;42.684;23.350;2023-04-23T04:47:15;95380.78;;;9.75;100.00
14067;BME280;7108;42.684;23.350;2023-04-23T04:49:41;95369.44;;;9.66;100.00
14067;BME280;7108;42.684;23.350;2023-04-23T04:52:06;95375.84;;;9.62;100.00
14067;BME280;7108;42.684;23.350;2023-04-23T04:54:31;95388.16;;;9.63;100.00
14067;BME280;7108;42.684;23.350;2023-04-23T04:56:57;95380.09;;;9.63;100.00
14067;BME280;7108;42.684;23.350;2023-04-23T04:59:22;95392.41;;;9.79;100.00
14067;BME280;7108;42.684;23.350;2023-04-23T05:01:48;95393.00;;;9.88;100.00
14067;BME280;7108;42.684;23.350;2023-04-23T05:04:13;95394.47;;;9.85;100.00
14067;BME280;7108;42.684;23.350;2023-04-23T05:06:39;95394.84;;;9.99;100.00
14067;BME280;7108;42.684;23.350;2023-04-23T05:09:04;95382.41;;;9.95;100.00
14067;BME280;7108;42.684;23.350;2023-04-23T05:11:30;95389.97;;;10.05;100.00
14067;BME280;7108;42.684;23.350;2023-04-23T05:13:56;95388.41;;;10.19;100.00
14067;BME280;7108;42.684;23.350;2023-04-23T05:16:21;95390.28;;;10.34;100.00
14067;BME280;7108;42.684;23.350;2023-04-23T05:18:47;95396.69;;;10.45;100.00
14067;BME280;7108;42.684;23.350;2023-04-23T05:21:13;95388.69;;;10.33;100.00
14067;BME280;7108;42.684;23.350;2023-04-23T05:23:39;95385.06;;;10.41;100.00
14067;BME280;7108;42.684;23.350;2023-04-23T05:26:04;95382.44;;;10.45;100.00
14067;BME280;7108;42.684;23.350;2023-04-23T05:28:30;95395.63;;;10.49;100.00
14067;BME280;7108;42.684;23.350;2023-04-23T05:30:56;95398.53;;;10.60;100.00
14067;BME280;7108;42.684;23.350;2023-04-23T05:33:22;95396.34;;;10.65;100.00
14067;BME280;7108;42.684;23.350;2023-04-23T05:35:48;95392.19;;;10.68;100.00
14067;BME280;7108;42.684;23.350;2023-04-23T05:38:13;95394.91;;;10.71;100.00
14067;BME280;7108;42.684;23.350;2023-04-23T05:40:39;95379.97;;;10.74;100.00
14067;BME280;7108;42.684;23.350;2023-04-23T05:43:04;95389.97;;;10.92;100.00
14067;BME280;7108;42.684;23.350;2023-04-23T05:45:30;95389.47;;;10.87;100.00
14067;BME280;7108;42.684;23.350;2023-04-23T05:47:55;95397.50;;;10.83;100.00
14067;BME280;7108;42.684;23.350;2023-04-23T05:50:24;95392.25;;;10.90;100.00
14067;BME280;7108;42.684;23.350;2023-04-23T05:52:49;95392.03;;;10.99;100.00
14067;BME280;7108;42.684;23.350;2023-04-23T05:55:15;95391.09;;;11.10;100.00
14067;BME280;7108;42.684;23.350;2023-04-23T05:57:40;95402.66;;;11.29;100.00
14067;BME280;7108;42.684;23.350;2023-04-23T06:00:07;95396.53;;;11.32;100.00
14067;BME280;7108;42.684;23.350;2023-04-23T06:02:36;95393.59;;;11.41;100.00
14067;BME280;7108;42.684;23.350;2023-04-23T06:05:02;95399.13;;;11.67;100.00
14067;BME280;7108;42.684;23.350;2023-04-23T06:07:28;95392.66;;;11.71;100.00
14067;BME280;7108;42.684;23.350;2023-04-23T06:09:53;95398.88;;;11.97;100.00
14067;BME280;7108;42.684;23.350;2023-04-23T06:12:19;95388.88;;;12.01;100.00
14067;BME280;7108;42.684;23.350;2023-04-23T06:14:44;95387.13;;;12.12;100.00
14067;BME280;7108;42.684;23.350;2023-04-23T06:17:09;95385.38;;;12.49;100.00
14067;BME280;7108;42.684;23.350;2023-04-23T06:19:35;95389.59;;;12.76;100.00
14067;BME280;7108;42.684;23.350;2023-04-23T06:22:00;95387.41;;;12.85;100.00
14067;BME280;7108;42.684;23.350;2023-04-23T06:24:26;95387.56;;;12.95;100.00
14067;BME280;7108;42.684;23.350;2023-04-23T06:26:51;95390.38;;;13.06;100.00
14067;BME280;7108;42.684;23.350;2023-04-23T06:29:17;95388.88;;;13.08;100.00
14067;BME280;7108;42.684;23.350;2023-04-23T06:31:42;95377.38;;;13.18;100.00
14067;BME280;7108;42.684;23.350;2023-04-23T06:34:07;95381.47;;;13.34;100.00
14067;BME280;7108;42.684;23.350;2023-04-23T06:36:33;95392.81;;;13.47;100.00
14067;BME280;7108;42.684;23.350;2023-04-23T06:38:59;95377.28;;;13.44;100.00
14067;BME280;7108;42.684;23.350;2023-04-23T06:41:24;95381.34;;;13.60;100.00
14067;BME280;7108;42.684;23.350;2023-04-23T06:43:50;95380.34;;;13.78;100.00
14067;BME280;7108;42.684;23.350;2023-04-23T06:46:15;95387.63;;;13.71;100.00
14067;BME280;7108;42.684;23.350;2023-04-23T06:48:41;95380.16;;;13.58;100.00
14067;BME280;7108;42.684;23.350;2023-04-23T06:51:06;95376.94;;;13.49;100.00
14067;BME280;7108;42.684;23.350;2023-04-23T06:53:32;95377.28;;;13.40;100.00
14067;BME280;7108;42.684;23.350;2023-04-23T06:55:58;95374.56;;;13.40;100.00
14067;BME280;7108;42.684;23.350;2023-04-23T06:58:23;95369.66;;;13.53;100.00
14067;BME280;7108;42.684;23.350;2023-04-23T07:00:58;95381.41;;;13.71;100.00
14067;BME280;7108;42.684;23.350;2023-04-23T07:03:26;95372.56;;;13.77;100.00
14067;BME280;7108;42.684;23.350;2023-04-23T07:05:52;95361.47;;;13.89;100.00
14067;BME280;7108;42.684;23.350;2023-04-23T07:08:18;95363.50;;;14.02;100.00
14067;BME280;7108;42.684;23.350;2023-04-23T07:10:45;95359.75;;;14.14;100.00
14067;BME280;7108;42.684;23.350;2023-04-23T07:13:10;95371.53;;;14.35;100.00
14067;BME280;7108;42.684;23.350;2023-04-23T07:15:36;95371.91;;;14.37;100.00
14067;BME280;7108;42.684;23.350;2023-04-23T07:18:02;95367.78;;;14.53;100.00
14067;BME280;7108;42.684;23.350;2023-04-23T07:20:27;95365.06;;;14.50;100.00
14067;BME280;7108;42.684;23.350;2023-04-23T07:22:53;95358.09;;;14.52;100.00
14067;BME280;7108;42.684;23.350;2023-04-23T07:25:18;95353.88;;;14.65;100.00
14067;BME280;7108;42.684;23.350;2023-04-23T07:27:45;95356.66;;;14.76;100.00
14067;BME280;7108;42.684;23.350;2023-04-23T07:30:11;95360.50;;;14.71;100.00
14067;BME280;7108;42.684;23.350;2023-04-23T07:32:36;95357.41;;;14.69;100.00
14067;BME280;7108;42.684;23.350;2023-04-23T07:35:02;95353.19;;;14.79;100.00
14067;BME280;7108;42.684;23.350;2023-04-23T07:37:29;95366.06;;;14.99;100.00
14067;BME280;7108;42.684;23.350;2023-04-23T07:39:54;95357.59;;;15.18;100.00
14067;BME280;7108;42.684;23.350;2023-04-23T07:42:20;95357.28;;;15.30;100.00
14067;BME280;7108;42.684;23.350;2023-04-23T07:44:45;95345.25;;;15.24;100.00
14067;BME280;7108;42.684;23.350;2023-04-23T07:47:11;95344.09;;;15.21;100.00
14067;BME280;7108;42.684;23.350;2023-04-23T07:49:36;95362.34;;;15.31;100.00
14067;BME280;7108;42.684;23.350;2023-04-23T07:52:01;95360.72;;;15.20;100.00
14067;BME280;7108;42.684;23.350;2023-04-23T07:54:27;95362.66;;;15.12;100.00
14067;BME280;7108;42.684;23.350;2023-04-23T07:56:52;95357.22;;;15.16;100.00
14067;BME280;7108;42.684;23.350;2023-04-23T07:59:18;95358.84;;;15.31;100.00
14067;BME280;7108;42.684;23.350;2023-04-23T08:01:43;95350.75;;;15.52;100.00
14067;BME280;7108;42.684;23.350;2023-04-23T08:04:10;95360.47;;;15.63;100.00
14067;BME280;7108;42.684;23.350;2023-04-23T08:06:35;95359.31;;;15.78;100.00
14067;BME280;7108;42.684;23.350;2023-04-23T08:09:01;95357.41;;;15.89;100.00
14067;BME280;7108;42.684;23.350;2023-04-23T08:11:33;95347.72;;;15.98;100.00
14067;BME280;7108;42.684;23.350;2023-04-23T08:13:59;95346.91;;;15.84;100.00
14067;BME280;7108;42.684;23.350;2023-04-23T08:16:26;95346.91;;;15.80;100.00
14067;BME280;7108;42.684;23.350;2023-04-23T08:18:51;95351.19;;;15.88;100.00
14067;BME280;7108;42.684;23.350;2023-04-23T08:21:16;95344.56;;;15.69;100.00
14067;BME280;7108;42.684;23.350;2023-04-23T08:23:42;95358.16;;;15.65;100.00
14067;BME280;7108;42.684;23.350;2023-04-23T08:26:07;95334.47;;;15.79;100.00
14067;BME280;7108;42.684;23.350;2023-04-23T08:28:34;95350.44;;;16.02;100.00
14067;BME280;7108;42.684;23.350;2023-04-23T08:30:59;95349.63;;;16.22;100.00
14067;BME280;7108;42.684;23.350;2023-04-23T08:33:26;95351.97;;;16.20;100.00
14067;BME280;7108;42.684;23.350;2023-04-23T08:35:51;95347.72;;;16.30;100.00
14067;BME280;7108;42.684;23.350;2023-04-23T08:38:20;95338.75;;;16.26;100.00
14067;BME280;7108;42.684;23.350;2023-04-23T08:40:48;95334.13;;;16.37;100.00
14067;BME280;7108;42.684;23.350;2023-04-23T08:43:18;95332.94;;;16.17;100.00
14067;BME280;7108;42.684;23.350;2023-04-23T08:45:48;95324.78;;;16.10;100.00
14067;BME280;7108;42.684;23.350;2023-04-23T08:48:14;95337.22;;;16.14;100.00
14067;BME280;7108;42.684;23.350;2023-04-23T08:50:43;95329.44;;;16.02;100.00
14067;BME280;7108;42.684;23.350;2023-04-23T08:53:09;95328.66;;;15.84;100.00
14067;BME280;7108;42.684;23.350;2023-04-23T08:55:35;95327.50;;;15.65;100.00
14067;BME280;7108;42.684;23.350;2023-04-23T08:58:01;95320.13;;;15.65;100.00
14067;BME280;7108;42.684;23.350;2023-04-23T09:00:30;95324.78;;;15.85;100.00
14067;BME280;7108;42.684;23.350;2023-04-23T09:02:57;95315.47;;;16.04;100.00
14067;BME280;7108;42.684;23.350;2023-04-23T09:05:22;95319.75;;;16.29;100.00
14067;BME280;7108;42.684;23.350;2023-04-23T09:07:48;95308.06;;;16.36;100.00
14067;BME280;7108;42.684;23.350;2023-04-23T09:10:13;95315.06;;;16.43;100.00
14067;BME280;7108;42.684;23.350;2023-04-23T09:12:41;95317.41;;;16.45;100.00
14067;BME280;7108;42.684;23.350;2023-04-23T09:15:07;95310.41;;;16.44;100.00
14067;BME280;7108;42.684;23.350;2023-04-23T09:17:42;95315.44;;;16.45;100.00
14067;BME280;7108;42.684;23.350;2023-04-23T09:20:08;95308.44;;;16.55;100.00
14067;BME280;7108;42.684;23.350;2023-04-23T09:22:41;95314.28;;;16.50;100.00
14067;BME280;7108;42.684;23.350;2023-04-23T09:25:08;95302.59;;;16.60;100.00
14067;BME280;7108;42.684;23.350;2023-04-23T09:27:34;95307.56;;;16.82;100.00
14067;BME280;7108;42.684;23.350;2023-04-23T09:30:04;95303.59;;;17.01;98.01
14067;BME280;7108;42.684;23.350;2023-04-23T09:32:33;95297.72;;;17.09;97.78
14067;BME280;7108;42.684;23.350;2023-04-23T09:35:04;95297.66;;;17.19;98.27
14067;BME280;7108;42.684;23.350;2023-04-23T09:37:30;95295.66;;;17.34;94.76
14067;BME280;7108;42.684;23.350;2023-04-23T09:40:04;95288.97;;;17.45;90.93
14067;BME280;7108;42.684;23.350;2023-04-23T09:42:34;95286.31;;;17.35;87.75
14067;BME280;7108;42.684;23.350;2023-04-23T09:45:09;95277.03;;;17.22;89.73
14067;BME280;7108;42.684;23.350;2023-04-23T09:47:41;95278.56;;;17.30;97.54
14067;BME280;7108;42.684;23.350;2023-04-23T09:50:12;95264.78;;;17.54;92.29
14067;BME280;7108;42.684;23.350;2023-04-23T09:52:38;95268.97;;;17.66;82.04
14067;BME280;7108;42.684;23.350;2023-04-23T09:55:04;95271.16;;;17.84;83.09
14067;BME280;7108;42.684;23.350;2023-04-23T09:57:40;95267.50;;;18.05;80.03
14067;BME280;7108;42.684;23.350;2023-04-23T10:00:13;95266.22;;;18.13;77.83
14067;BME280;7108;42.684;23.350;2023-04-23T10:02:45;95266.13;;;18.30;76.83
14067;BME280;7108;42.684;23.350;2023-04-23T10:05:19;95257.44;;;18.39;71.57
14067;BME280;7108;42.684;23.350;2023-04-23T10:07:45;95259.41;;;18.38;72.43
14067;BME280;7108;42.684;23.350;2023-04-23T10:10:15;95245.88;;;18.28;70.18
14067;BME280;7108;42.684;23.350;2023-04-23T10:12:42;95244.81;;;18.51;74.52
14067;BME280;7108;42.684;23.350;2023-04-23T10:15:08;95235.63;;;18.72;74.04
14067;BME280;7108;42.684;23.350;2023-04-23T10:17:38;95234.16;;;18.94;70.75
14067;BME280;7108;42.684;23.350;2023-04-23T10:20:08;95230.94;;;19.02;63.81
14067;BME280;7108;42.684;23.350;2023-04-23T10:22:35;95217.78;;;18.94;63.59
14067;BME280;7108;42.684;23.350;2023-04-23T10:25:09;95224.53;;;18.86;60.75
14067;BME280;7108;42.684;23.350;2023-04-23T10:27:40;95220.28;;;18.81;60.17
14067;BME280;7108;42.684;23.350;2023-04-23T10:30:08;95226.41;;;18.89;59.61
14067;BME280;7108;42.684;23.350;2023-04-23T10:32:34;95209.63;;;18.90;61.28
14067;BME280;7108;42.684;23.350;2023-04-23T10:35:00;95212.00;;;18.88;58.33
14067;BME280;7108;42.684;23.350;2023-04-23T10:37:25;95204.13;;;18.94;58.79
14067;BME280;7108;42.684;23.350;2023-04-23T10:40:00;95208.66;;;19.07;54.08
14067;BME280;7108;42.684;23.350;2023-04-23T10:42:28;95207.53;;;19.01;52.77
14067;BME280;7108;42.684;23.350;2023-04-23T10:44:57;95207.84;;;19.10;52.09
14067;BME280;7108;42.684;23.350;2023-04-23T10:47:22;95202.25;;;19.17;53.74
14067;BME280;7108;42.684;23.350;2023-04-23T10:49:48;95199.53;;;19.17;52.88
14067;BME280;7108;42.684;23.350;2023-04-23T10:52:15;95196.03;;;19.16;52.72
14067;BME280;7108;42.684;23.350;2023-04-23T10:54:42;95184.44;;;19.09;50.42
14067;BME280;7108;42.684;23.350;2023-04-23T10:57:09;95188.47;;;19.27;52.95
14067;BME280;7108;42.684;23.350;2023-04-23T10:59:38;95188.13;;;19.22;48.42
14067;BME280;7108;42.684;23.350;2023-04-23T11:04:33;95179.84;;;19.29;48.83
14067;BME280;7108;42.684;23.350;2023-04-23T11:07:06;95183.13;;;19.43;50.62
14067;BME280;7108;42.684;23.350;2023-04-23T11:12:10;95181.97;;;19.44;49.70
14067;BME280;7108;42.684;23.350;2023-04-23T11:14:44;95168.22;;;19.48;48.94
14067;BME280;7108;42.684;23.350;2023-04-23T11:17:11;95162.97;;;19.34;48.08
14067;BME280;7108;42.684;23.350;2023-04-23T11:19:38;95154.22;;;19.46;48.66
14067;BME280;7108;42.684;23.350;2023-04-23T11:22:16;95152.94;;;19.50;44.64
14067;BME280;7108;42.684;23.350;2023-04-23T11:24:43;95145.09;;;19.52;42.88
14067;BME280;7108;42.684;23.350;2023-04-23T11:27:15;95146.88;;;19.39;43.17
14067;BME280;7108;42.684;23.350;2023-04-23T11:29:42;95150.34;;;19.43;42.01
14067;BME280;7108;42.684;23.350;2023-04-23T11:32:09;95150.03;;;19.61;42.60
14067;BME280;7108;42.684;23.350;2023-04-23T11:34:38;95153.19;;;19.59;41.26
14067;BME280;7108;42.684;23.350;2023-04-23T11:37:04;95143.50;;;19.55;42.32
14067;BME280;7108;42.684;23.350;2023-04-23T11:39:31;95147.13;;;19.71;43.64
14067;BME280;7108;42.684;23.350;2023-04-23T11:41:56;95145.41;;;19.80;44.04
14067;BME280;7108;42.684;23.350;2023-04-23T11:44:27;95139.31;;;19.96;43.56
14067;BME280;7108;42.684;23.350;2023-04-23T11:46:53;95131.31;;;19.82;40.86
14067;BME280;7108;42.684;23.350;2023-04-23T11:49:18;95132.69;;;19.93;42.50
14067;BME280;7108;42.684;23.350;2023-04-23T11:51:46;95135.28;;;20.00;40.46
14067;BME280;7108;42.684;23.350;2023-04-23T11:54:12;95124.06;;;19.95;37.59
14067;BME280;7108;42.684;23.350;2023-04-23T11:56:39;95122.53;;;20.13;38.65
14067;BME280;7108;42.684;23.350;2023-04-23T11:59:05;95121.63;;;20.20;37.38
14067;BME280;7108;42.684;23.350;2023-04-23T12:01:48;95117.97;;;20.26;38.43
14067;BME280;7108;42.684;23.350;2023-04-23T12:04:19;95116.50;;;20.41;39.57
14067;BME280;7108;42.684;23.350;2023-04-23T12:06:46;95120.34;;;20.43;40.22
14067;BME280;7108;42.684;23.350;2023-04-23T12:09:13;95104.34;;;20.61;41.28
14067;BME280;7108;42.684;23.350;2023-04-23T12:11:43;95106.50;;;20.70;40.98
14067;BME280;7108;42.684;23.350;2023-04-23T12:14:11;95114.31;;;20.52;38.01
14067;BME280;7108;42.684;23.350;2023-04-23T12:16:39;95111.94;;;20.35;36.61
14067;BME280;7108;42.684;23.350;2023-04-23T12:19:17;95121.41;;;20.30;36.93
14067;BME280;7108;42.684;23.350;2023-04-23T12:21:55;95119.56;;;20.04;37.63
14067;BME280;7108;42.684;23.350;2023-04-23T12:24:25;95110.19;;;20.05;38.79
14067;BME280;7108;42.684;23.350;2023-04-23T12:26:58;95103.75;;;19.96;38.99
14067;BME280;7108;42.684;23.350;2023-04-23T12:29:25;95103.31;;;19.97;40.07
14067;BME280;7108;42.684;23.350;2023-04-23T12:31:52;95106.53;;;19.92;39.11
14067;BME280;7108;42.684;23.350;2023-04-23T12:34:19;95089.63;;;19.74;39.04
14067;BME280;7108;42.684;23.350;2023-04-23T12:36:55;95088.09;;;19.73;39.18
14067;BME280;7108;42.684;23.350;2023-04-23T12:41:56;95089.38;;;19.46;38.55
14067;BME280;7108;42.684;23.350;2023-04-23T12:44:24;95081.19;;;19.23;38.79
14067;BME280;7108;42.684;23.350;2023-04-23T12:46:59;95088.78;;;19.12;38.56
14067;BME280;7108;42.684;23.350;2023-04-23T12:49:25;95091.59;;;19.06;39.70
14067;BME280;7108;42.684;23.350;2023-04-23T12:51:52;95092.22;;;18.90;39.10
14067;BME280;7108;42.684;23.350;2023-04-23T12:54:23;95088.53;;;18.77;39.98
14067;BME280;7108;42.684;23.350;2023-04-23T12:56:48;95083.72;;;18.58;40.22
14067;BME280;7108;42.684;23.350;2023-04-23T12:59:13;95082.91;;;18.61;40.85